createdAt,value
2022-08-10T00:02:19.324Z,3.95
2022-08-10T00:04:52.853Z,4.01
2022-08-10T00:07:26.342Z,3.91
2022-08-10T00:10:02.219Z,3.90
2022-08-10T00:20:12.273Z,3.88
2022-08-10T00:22:57.518Z,3.84
2022-08-10T00:25:40.274Z,3.84
2022-08-10T00:28:13.854Z,3.93
2022-08-10T00:30:47.322Z,3.93
2022-08-10T00:33:21.141Z,3.90
2022-08-10T00:35:56.314Z,3.81
2022-08-10T00:49:08.333Z,3.86
2022-08-10T00:51:48.267Z,3.88
2022-08-10T00:54:32.703Z,3.62
2022-08-10T00:57:17.907Z,3.88
2022-08-10T01:00:00.563Z,3.79
2022-08-10T01:13:54.304Z,3.72
2022-08-10T01:16:37.363Z,3.62
2022-08-10T01:19:39.301Z,3.97
2022-08-10T01:22:44.882Z,3.63
2022-08-10T01:26:12.347Z,3.86
2022-08-10T01:29:26.821Z,3.60
2022-08-10T01:42:27.302Z,3.79
2022-08-10T01:45:15.943Z,3.71
2022-08-10T01:47:52.223Z,3.76
2022-08-10T01:50:59.933Z,3.57
2022-08-10T01:53:42.671Z,3.74
2022-08-10T01:56:27.301Z,4.00
2022-08-10T02:09:46.342Z,3.81
2022-08-10T02:12:27.299Z,3.60
2022-08-10T02:15:14.921Z,3.95
2022-08-10T02:17:59.126Z,4.00
2022-08-10T02:20:50.328Z,4.04
2022-08-10T02:34:09.301Z,3.73
2022-08-10T02:36:50.093Z,3.72
2022-08-10T02:39:32.366Z,3.79
2022-08-10T02:45:27.429Z,3.62
2022-08-10T02:45:39.983Z,3.57
2022-08-10T02:48:23.063Z,3.54
2022-08-10T02:51:17.294Z,3.54
2022-08-10T03:01:06.353Z,3.72
2022-08-10T03:03:56.294Z,3.68
2022-08-10T03:06:37.424Z,3.74
2022-08-10T03:09:22.302Z,3.79
2022-08-10T03:12:35.082Z,3.68
2022-08-10T03:15:01.314Z,3.72
2022-08-10T03:28:18.246Z,3.91
2022-08-10T03:30:57.253Z,3.75
2022-08-10T03:33:35.313Z,3.65
2022-08-10T03:36:42.184Z,3.58
2022-08-10T03:39:10.385Z,3.66
2022-08-10T03:56:30.381Z,3.80
2022-08-10T03:58:42.302Z,3.68
2022-08-10T04:01:17.890Z,3.91
2022-08-10T04:03:52.313Z,3.76
2022-08-10T04:06:46.354Z,3.70
2022-08-10T04:09:55.729Z,3.85
2022-08-10T04:23:15.333Z,3.83
2022-08-10T04:25:50.714Z,3.85
2022-08-10T04:28:26.415Z,3.83
2022-08-10T04:31:04.561Z,3.76
2022-08-10T04:33:51.425Z,3.80
2022-08-10T04:36:26.835Z,3.81
2022-08-10T04:49:54.846Z,4.26
2022-08-10T04:52:18.293Z,4.11
2022-08-10T04:54:51.813Z,4.01
2022-08-10T04:57:25.358Z,4.26
2022-08-10T04:59:58.934Z,3.98
2022-08-10T05:16:32.151Z,4.14
2022-08-10T05:19:06.834Z,4.31
2022-08-10T05:21:57.065Z,4.08
2022-08-10T05:24:33.774Z,4.27
2022-08-10T05:27:09.897Z,4.18
2022-08-10T05:29:43.713Z,4.42
2022-08-10T05:42:58.293Z,4.02
2022-08-10T05:46:17.100Z,3.92
2022-08-10T05:48:57.175Z,4.14
2022-08-10T05:51:35.561Z,4.21
2022-08-10T05:54:10.633Z,4.24
2022-08-10T05:56:54.766Z,3.89
2022-08-10T06:10:35.583Z,4.08
2022-08-10T06:13:21.452Z,4.38
2022-08-10T06:16:13.293Z,4.07
2022-08-10T06:18:47.673Z,3.90
2022-08-10T06:21:23.374Z,4.24
2022-08-10T06:34:56.333Z,4.23
2022-08-10T06:37:31.634Z,4.48
2022-08-10T06:40:05.421Z,4.11
2022-08-10T06:42:46.833Z,4.26
2022-08-10T06:45:33.293Z,4.28
2022-08-10T06:48:24.261Z,4.17
2022-08-10T06:51:11.354Z,4.43
2022-08-10T07:01:31.312Z,3.80
2022-08-10T07:04:32.416Z,3.95
2022-08-10T07:07:18.337Z,3.66
2022-08-10T07:10:01.314Z,3.77
2022-08-10T07:12:38.813Z,4.04
2022-08-10T07:15:20.314Z,3.85
2022-08-10T07:28:35.294Z,3.86
2022-08-10T07:31:54.741Z,3.88
2022-08-10T07:34:13.321Z,3.94
2022-08-10T07:37:07.222Z,3.73
2022-08-10T07:40:02.429Z,3.78
2022-08-10T07:56:51.280Z,3.87
2022-08-10T07:59:44.979Z,3.68
2022-08-10T08:02:28.353Z,3.58
2022-08-10T08:05:55.107Z,3.75
2022-08-10T08:08:15.882Z,3.53
2022-08-10T08:10:58.345Z,3.80
2022-08-10T08:24:32.211Z,3.54
2022-08-10T08:27:07.494Z,3.87
2022-08-10T08:29:45.313Z,3.90
2022-08-10T08:32:22.895Z,4.07
2022-08-10T08:35:08.302Z,4.46
2022-08-10T08:49:01.294Z,4.45
2022-08-10T08:52:08.221Z,4.53
2022-08-10T08:55:55.337Z,4.58
2022-08-10T08:58:30.114Z,4.37
2022-08-10T09:01:37.993Z,4.54
2022-08-10T09:15:40.350Z,4.66
2022-08-10T09:18:27.614Z,4.56
2022-08-10T09:21:19.323Z,4.60
2022-08-10T09:24:06.036Z,4.95
2022-08-10T09:26:56.318Z,4.68
2022-08-10T09:29:41.556Z,4.78
2022-08-10T09:43:14.212Z,4.70
2022-08-10T09:46:05.333Z,4.37
2022-08-10T09:49:00.834Z,4.31
2022-08-10T09:51:55.314Z,4.51
2022-08-10T09:54:52.313Z,4.23
2022-08-10T10:11:26.313Z,4.08
2022-08-10T10:14:14.877Z,4.23
2022-08-10T10:17:09.343Z,4.34
2022-08-10T10:20:01.794Z,4.37
2022-08-10T10:36:27.313Z,4.74
2022-08-10T10:39:02.734Z,4.60
2022-08-10T10:41:56.210Z,4.59
2022-08-10T10:44:52.734Z,3.62
2022-08-10T10:47:51.334Z,3.71
2022-08-10T10:50:36.993Z,4.01
2022-08-10T11:03:59.297Z,3.91
2022-08-10T11:06:58.694Z,4.24
2022-08-10T11:10:03.349Z,4.00
2022-08-10T11:12:53.293Z,4.22
2022-08-10T11:15:42.688Z,4.30
2022-08-10T11:29:12.293Z,4.57
2022-08-10T11:32:02.313Z,4.29
2022-08-10T11:35:11.128Z,4.83
2022-08-10T11:38:30.099Z,4.38
2022-08-10T11:42:05.484Z,4.21
2022-08-10T11:44:21.372Z,4.10
2022-08-10T11:47:04.693Z,4.13
2022-08-10T11:56:58.460Z,4.40
2022-08-10T11:59:40.515Z,4.24
2022-08-10T12:02:22.363Z,4.17
2022-08-10T12:05:01.308Z,4.30
2022-08-10T12:10:06.238Z,3.96
2022-08-10T12:10:47.255Z,4.07
2022-08-10T12:23:48.282Z,4.89
2022-08-10T12:26:53.293Z,4.65
2022-08-10T12:29:40.647Z,4.05
2022-08-10T12:32:35.484Z,3.95
2022-08-10T12:35:26.146Z,3.65
2022-08-10T12:49:09.293Z,4.00
2022-08-10T12:51:59.354Z,4.25
2022-08-10T12:54:36.693Z,4.31
2022-08-10T12:57:22.333Z,4.36
2022-08-10T13:00:03.382Z,4.37
2022-08-10T13:02:49.149Z,4.42
2022-08-10T13:05:27.240Z,4.22
2022-08-10T13:18:34.313Z,4.25
2022-08-10T13:21:20.329Z,4.22
2022-08-10T13:24:04.630Z,4.24
2022-08-10T13:27:26.201Z,4.27
2022-08-10T13:30:05.052Z,4.46
2022-08-10T13:43:07.293Z,3.92
2022-08-10T13:45:54.773Z,4.35
2022-08-10T13:48:32.513Z,3.87
2022-08-10T13:51:14.334Z,4.18
2022-08-10T13:53:52.739Z,3.93
2022-08-10T13:56:38.358Z,4.14
2022-08-10T14:09:54.978Z,3.83
2022-08-10T14:12:51.818Z,4.34
2022-08-10T14:15:38.358Z,4.57
2022-08-10T14:18:13.120Z,4.69
2022-08-10T14:20:48.341Z,4.52
2022-08-10T14:23:22.341Z,4.33
2022-08-10T14:26:09.002Z,4.49
2022-08-10T14:36:24.703Z,4.66
2022-08-10T14:39:10.382Z,4.78
2022-08-10T14:42:01.490Z,4.28
2022-08-10T14:44:55.383Z,4.40
2022-08-10T14:47:59.220Z,4.63
2022-08-10T14:50:39.321Z,4.33
2022-08-10T15:04:12.397Z,4.37
2022-08-10T15:06:54.838Z,4.67
2022-08-10T15:09:59.906Z,4.59
2022-08-10T15:12:36.280Z,4.22
2022-08-10T15:31:54.300Z,4.63
2022-08-10T15:34:37.378Z,4.53
2022-08-10T15:37:39.688Z,4.30
2022-08-10T15:40:31.372Z,4.43
2022-08-10T15:43:26.812Z,4.49
2022-08-10T15:46:18.339Z,4.04
2022-08-10T15:56:35.319Z,4.02
2022-08-10T15:59:22.359Z,3.94
2022-08-10T16:02:12.373Z,4.00
2022-08-10T16:05:08.366Z,3.94
2022-08-10T16:07:50.335Z,3.80
2022-08-10T16:10:39.412Z,3.78
2022-08-10T16:24:15.020Z,3.88
2022-08-10T16:26:53.218Z,3.82
2022-08-10T16:29:53.451Z,3.56
2022-08-10T16:32:32.358Z,3.75
2022-08-10T16:35:18.359Z,3.58
2022-08-10T16:51:58.319Z,3.77
2022-08-10T16:54:40.360Z,3.98
2022-08-10T16:57:17.499Z,4.04
2022-08-10T16:59:54.370Z,3.89
2022-08-10T17:02:32.622Z,3.60
2022-08-10T17:05:17.378Z,3.68
2022-08-10T17:18:52.021Z,2.96
2022-08-10T17:21:34.918Z,3.40
2022-08-10T17:24:19.358Z,3.34
2022-08-10T17:27:01.451Z,3.43
2022-08-10T17:43:59.326Z,3.45
2022-08-10T17:46:33.019Z,3.20
2022-08-10T17:49:16.386Z,3.25
2022-08-10T17:51:54.125Z,3.47
2022-08-10T17:54:39.358Z,3.47
2022-08-10T18:11:12.399Z,3.25
2022-08-10T18:13:58.398Z,3.34
2022-08-10T18:16:34.799Z,3.22
2022-08-10T18:19:20.719Z,3.37
2022-08-10T18:21:56.358Z,3.31
2022-08-10T18:24:33.380Z,3.48
2022-08-10T18:27:12.526Z,3.26
2022-08-10T18:37:02.440Z,3.35
2022-08-10T18:39:40.713Z,3.32
2022-08-10T18:42:30.359Z,3.14
2022-08-10T18:45:10.107Z,3.23
2022-08-10T18:48:01.377Z,3.30
2022-08-10T18:50:45.979Z,3.48
2022-08-10T19:04:21.346Z,3.42
2022-08-10T19:07:17.378Z,3.45
2022-08-10T19:10:09.234Z,3.60
2022-08-10T19:13:01.398Z,3.34
2022-08-10T19:30:22.706Z,3.69
2022-08-10T19:33:26.364Z,3.57
2022-08-10T19:36:17.379Z,3.45
2022-08-10T19:39:17.120Z,3.63
2022-08-10T19:42:07.543Z,3.57
2022-08-10T19:45:07.399Z,3.51
2022-08-10T19:58:28.419Z,3.58
2022-08-10T20:01:05.703Z,3.42
2022-08-10T20:03:56.408Z,3.54
2022-08-10T20:06:42.199Z,3.25
2022-08-10T20:09:36.406Z,3.56
2022-08-10T20:12:22.399Z,3.29
2022-08-10T20:25:24.990Z,3.43
2022-08-10T20:28:21.421Z,3.62
2022-08-10T20:31:06.520Z,3.25
2022-08-10T20:33:49.423Z,3.73
2022-08-10T20:36:31.100Z,3.51
2022-08-10T20:52:58.408Z,3.34
2022-08-10T20:55:53.821Z,3.33
2022-08-10T20:59:12.400Z,3.55
2022-08-10T21:02:07.371Z,3.34
2022-08-10T21:05:03.422Z,3.25
2022-08-10T21:18:47.449Z,3.18
2022-08-10T21:22:05.789Z,3.58
2022-08-10T21:25:03.768Z,3.32
2022-08-10T21:28:30.261Z,3.51
2022-08-10T21:31:50.482Z,3.45
2022-08-10T21:45:22.420Z,3.30
2022-08-10T21:48:39.300Z,3.33
2022-08-10T21:52:01.540Z,3.58
2022-08-10T21:54:35.261Z,3.51
2022-08-10T21:57:24.360Z,3.16
2022-08-10T22:11:04.423Z,3.20
2022-08-10T22:13:45.282Z,3.24
2022-08-10T22:16:48.380Z,3.48
2022-08-10T22:19:30.687Z,3.36
2022-08-10T22:22:20.082Z,3.23
2022-08-10T22:25:36.761Z,3.59
2022-08-10T22:38:56.340Z,3.66
2022-08-10T22:41:54.419Z,3.42
2022-08-10T22:44:34.569Z,3.54
2022-08-10T22:47:21.420Z,3.88
2022-08-10T22:49:57.171Z,3.55
2022-08-10T23:06:04.402Z,3.74
2022-08-10T23:08:46.761Z,3.73
2022-08-10T23:11:34.421Z,3.79
2022-08-10T23:14:11.983Z,3.95
2022-08-10T23:16:58.400Z,3.93
2022-08-10T23:33:37.857Z,3.71
2022-08-10T23:36:33.925Z,3.99
2022-08-10T23:39:25.708Z,3.75
2022-08-10T23:42:13.400Z,3.87
2022-08-10T23:44:51.361Z,3.84
2022-08-10T23:47:34.401Z,3.76
2022-08-10T23:58:04.340Z,4.00
